Time;durP1;ratioP1;P1;durP2;ratioP2;P2;SDS_P1;SDS_P2;PMS_P1;PMS_P2;Temp;Humidity;BMP_temperature;BMP_pressure;BME280_temperature;BME280_humidity;BME280_pressure;Samples;Min_cycle;Max_cycle;Signal;HPM_P1;HPM_P2
2022/03/21 00:02:20;;;;;;;8.93;6.63;;;22.20;52.30;;;;;;4987060;28;20284;-89
2022/03/21 00:04:45;;;;;;;7.77;7.03;;;22.20;52.30;;;;;;4971300;28;20212;-90
2022/03/21 00:07:12;;;;;;;8.10;7.17;;;22.20;52.30;;;;;;4971020;28;20269;-90
2022/03/21 00:09:40;;;;;;;6.37;5.70;;;22.20;52.30;;;;;;4977998;28;20216;-89
2022/03/21 00:12:07;;;;;;;7.70;6.20;;;22.20;52.30;;;;;;4971562;28;20460;-89
2022/03/21 00:14:32;;;;;;;7.03;6.33;;;22.20;52.30;;;;;;4954967;28;20515;-90
2022/03/21 00:16:59;;;;;;;7.40;6.40;;;22.20;52.30;;;;;;4970620;28;20425;-90
2022/03/21 00:19:25;;;;;;;8.03;6.90;;;22.20;52.30;;;;;;4994524;28;20184;-90
2022/03/21 00:21:51;;;;;;;6.43;5.67;;;22.20;52.30;;;;;;4983285;28;20417;-89
2022/03/21 00:24:17;;;;;;;7.33;5.83;;;22.20;52.30;;;;;;4968638;29;20551;-90
2022/03/21 00:26:43;;;;;;;5.97;5.37;;;22.20;52.30;;;;;;4968815;29;20221;-89
2022/03/21 00:29:09;;;;;;;8.83;6.70;;;22.20;52.30;;;;;;4968242;28;20178;-90
2022/03/21 00:31:36;;;;;;;8.00;6.03;;;22.20;52.30;;;;;;4951164;29;20174;-89
2022/03/21 00:34:02;;;;;;;6.90;5.80;;;22.20;52.30;;;;;;4952373;29;20414;-90
2022/03/21 00:36:28;;;;;;;7.17;6.37;;;22.20;52.30;;;;;;4951595;29;20766;-90
2022/03/21 00:38:54;;;;;;;7.10;6.40;;;22.20;52.30;;;;;;4951314;29;20411;-90
2022/03/21 00:41:22;;;;;;;7.83;7.03;;;22.20;52.30;;;;;;4951778;29;20422;-89
2022/03/21 00:43:47;;;;;;;7.60;6.20;;;22.20;52.30;;;;;;4969042;29;20257;-90
2022/03/21 00:46:13;;;;;;;6.60;5.93;;;22.20;52.30;;;;;;4951337;29;20437;-90
2022/03/21 00:48:39;;;;;;;7.47;6.00;;;22.20;52.30;;;;;;4985255;28;20447;-90
2022/03/21 00:51:06;;;;;;;7.17;5.83;;;22.20;52.30;;;;;;5007467;28;20540;-89
2022/03/21 00:53:31;;;;;;;9.63;6.37;;;22.20;52.30;;;;;;4990098;28;20180;-90
2022/03/21 00:55:59;;;;;;;6.67;5.40;;;22.20;52.30;;;;;;4988898;28;20408;-90
2022/03/21 00:58:28;;;;;;;8.23;6.23;;;22.20;52.90;;;;;;4988564;28;20236;-89
2022/03/21 01:00:54;;;;;;;8.73;6.33;;;22.20;52.30;;;;;;4990869;28;20427;-90
2022/03/21 01:03:19;;;;;;;6.00;5.40;;;22.20;52.30;;;;;;4990238;28;20428;-90
2022/03/21 01:05:45;;;;;;;6.77;6.07;;;22.20;52.30;;;;;;4989969;28;20177;-90
2022/03/21 01:08:11;;;;;;;6.07;5.43;;;22.20;52.30;;;;;;4989999;28;20207;-89
2022/03/21 01:10:37;;;;;;;5.47;4.93;;;22.20;52.30;;;;;;4990837;28;20207;-88
2022/03/21 01:13:03;;;;;;;8.20;6.27;;;22.20;52.30;;;;;;5007060;28;20173;-90
2022/03/21 01:15:30;;;;;;;9.37;6.67;;;22.20;52.30;;;;;;5006610;28;20424;-90
2022/03/21 01:17:58;;;;;;;6.60;5.90;;;22.20;52.40;;;;;;4989854;28;20470;-90
2022/03/21 01:20:24;;;;;;;6.37;5.80;;;22.20;52.30;;;;;;5007650;28;20451;-89
2022/03/21 01:22:50;;;;;;;7.80;5.20;;;22.20;52.30;;;;;;4989552;28;20432;-90
2022/03/21 01:25:16;;;;;;;6.63;5.93;;;22.20;52.40;;;;;;5007338;28;20419;-90
2022/03/21 01:27:43;;;;;;;6.80;5.70;;;22.10;52.30;;;;;;5006764;28;20416;-89
2022/03/21 01:30:11;;;;;;;5.73;5.13;;;22.20;52.30;;;;;;5007796;28;20205;-89
2022/03/21 01:32:38;;;;;;;6.27;5.63;;;22.20;52.40;;;;;;4989650;28;20412;-89
2022/03/21 01:35:06;;;;;;;6.47;5.80;;;22.20;52.40;;;;;;4990290;28;20420;-90
2022/03/21 01:37:32;;;;;;;7.33;5.63;;;22.20;52.40;;;;;;4990758;28;20440;-89
2022/03/21 01:39:58;;;;;;;5.63;5.13;;;22.20;52.40;;;;;;5007862;28;20443;-90
2022/03/21 01:42:23;;;;;;;6.27;5.67;;;22.20;52.40;;;;;;4990267;28;20644;-91
2022/03/21 01:44:55;;;;;;;7.07;5.80;;;22.10;52.30;;;;;;4989520;28;20647;-89
2022/03/21 01:47:21;;;;;;;6.70;4.63;;;22.20;52.40;;;;;;5007664;28;20168;-89
2022/03/21 01:49:46;;;;;;;6.43;5.83;;;22.20;52.40;;;;;;4990218;28;20459;-89
2022/03/21 01:52:13;;;;;;;6.43;5.20;;;22.20;52.40;;;;;;4989961;28;20683;-88
2022/03/21 01:57:24;;;;;;;6.13;5.27;;;22.10;52.30;;;;;;4987472;28;20396;-89
2022/03/21 01:59:50;;;;;;;7.23;5.50;;;22.10;52.30;;;;;;4970577;28;20467;-89
2022/03/21 02:02:16;;;;;;;6.93;5.03;;;22.10;52.30;;;;;;4956816;29;20520;-89
2022/03/21 02:04:42;;;;;;;6.00;5.40;;;22.10;52.30;;;;;;4968430;29;20427;-89
2022/03/21 02:07:08;;;;;;;5.90;5.30;;;22.10;52.30;;;;;;4967527;29;20438;-90
2022/03/21 02:09:35;;;;;;;6.00;5.20;;;22.20;52.40;;;;;;4968739;28;20206;-89
2022/03/21 02:12:03;;;;;;;6.70;6.00;;;22.10;52.30;;;;;;4970015;29;20410;-90
2022/03/21 02:14:29;;;;;;;5.73;5.10;;;22.10;52.30;;;;;;4954643;29;20425;-89
2022/03/21 02:16:55;;;;;;;6.63;5.93;;;22.10;52.30;;;;;;4971665;29;20412;-90
2022/03/21 02:19:27;;;;;;;5.30;4.80;;;22.10;52.30;;;;;;4970508;28;20421;-90
2022/03/21 02:22:01;;;;;;;6.80;6.10;;;22.10;52.30;;;;;;4971882;29;20905;-89
2022/03/21 02:24:42;;;;;;;6.90;5.90;;;22.10;52.30;;;;;;4971750;29;20413;-89
2022/03/21 02:27:10;;;;;;;6.13;5.20;;;22.10;52.30;;;;;;4971359;29;20391;-89
2022/03/21 02:29:38;;;;;;;5.90;5.30;;;22.10;52.40;;;;;;4971812;29;20458;-88
2022/03/21 02:32:06;;;;;;;6.60;6.00;;;22.10;52.40;;;;;;4971441;29;20411;-88
2022/03/21 02:34:38;;;;;;;6.17;5.47;;;22.10;52.40;;;;;;4971736;29;20413;-88
2022/03/21 02:37:08;;;;;;;5.90;5.20;;;22.10;52.40;;;;;;4954825;29;20439;-88
2022/03/21 02:39:36;;;;;;;5.73;5.10;;;22.10;52.40;;;;;;4970002;29;20448;-88
2022/03/21 02:42:03;;;;;;;5.27;4.77;;;22.10;52.40;;;;;;4964746;28;20421;-89
2022/03/21 02:44:39;;;;;;;5.93;4.93;;;22.10;52.40;;;;;;4973449;28;20421;-88
2022/03/21 02:47:06;;;;;;;5.70;5.20;;;22.10;52.40;;;;;;4970275;29;20421;-89
2022/03/21 02:49:33;;;;;;;6.23;5.63;;;22.10;52.40;;;;;;4970931;28;20460;-90
2022/03/21 02:51:59;;;;;;;5.57;4.93;;;22.10;52.40;;;;;;4970023;29;20433;-90
2022/03/21 02:54:31;;;;;;;6.00;5.10;;;22.10;52.40;;;;;;4986762;28;20437;-90
2022/03/21 02:56:58;;;;;;;7.30;6.00;;;22.10;52.40;;;;;;4970686;29;20406;-89
2022/03/21 02:59:25;;;;;;;5.70;5.10;;;22.10;52.40;;;;;;4970275;29;20414;-89
2022/03/21 03:01:54;;;;;;;6.33;4.83;;;22.10;52.50;;;;;;4969816;29;20424;-90
2022/03/21 03:04:21;;;;;;;7.53;5.20;;;22.10;52.50;;;;;;4970889;29;20422;-89
2022/03/21 03:06:47;;;;;;;5.37;4.83;;;22.00;52.40;;;;;;4988820;28;20796;-89
2022/03/21 03:09:14;;;;;;;5.77;4.87;;;22.00;52.40;;;;;;4990167;28;20419;-89
2022/03/21 03:11:40;;;;;;;6.20;5.27;;;22.00;52.40;;;;;;4973361;28;20448;-89
2022/03/21 03:14:06;;;;;;;5.80;5.10;;;22.00;52.40;;;;;;4961442;29;20441;-89
2022/03/21 03:16:32;;;;;;;6.07;5.50;;;22.00;52.40;;;;;;4970312;29;20584;-90
2022/03/21 03:18:58;;;;;;;4.73;4.20;;;22.00;52.40;;;;;;4954292;29;20442;-89
2022/03/21 03:21:26;;;;;;;5.63;4.87;;;22.00;52.50;;;;;;4970235;28;20424;-87
2022/03/21 03:23:52;;;;;;;6.10;5.10;;;22.00;52.50;;;;;;4972401;28;20221;-89
2022/03/21 03:26:18;;;;;;;5.47;4.60;;;22.00;52.50;;;;;;4990099;28;20480;-88
2022/03/21 03:28:47;;;;;;;5.57;5.07;;;22.00;52.50;;;;;;4981277;28;20418;-91
2022/03/21 03:31:15;;;;;;;6.47;5.07;;;22.00;52.50;;;;;;4965736;28;20472;-88
2022/03/21 03:33:41;;;;;;;4.63;4.13;;;22.00;52.50;;;;;;4989858;28;20413;-88
2022/03/21 03:36:07;;;;;;;5.47;4.97;;;22.00;52.50;;;;;;4972130;28;20424;-88
2022/03/21 03:38:34;;;;;;;4.90;4.40;;;22.00;52.50;;;;;;4989604;28;20424;-89
2022/03/21 03:41:01;;;;;;;5.03;4.07;;;22.00;53.00;;;;;;4989320;28;20417;-88
2022/03/21 03:43:27;;;;;;;5.30;4.80;;;22.00;52.50;;;;;;4989641;28;20967;-88
2022/03/21 03:45:54;;;;;;;4.80;4.40;;;22.00;52.50;;;;;;4989502;28;20460;-88
2022/03/21 03:48:20;;;;;;;5.00;4.60;;;22.00;52.50;;;;;;4989212;28;20184;-89
2022/03/21 03:50:47;;;;;;;6.03;4.43;;;22.00;52.50;;;;;;4987386;28;20476;-89
2022/03/21 03:53:13;;;;;;;4.83;4.33;;;22.00;52.50;;;;;;4989974;28;20572;-89
2022/03/21 03:55:39;;;;;;;5.67;5.07;;;22.00;52.50;;;;;;4989516;28;20896;-89
2022/03/21 03:58:05;;;;;;;5.30;4.80;;;22.00;52.50;;;;;;4971227;28;20504;-89
2022/03/21 04:00:31;;;;;;;6.30;4.60;;;22.00;52.50;;;;;;4972235;28;20177;-89
2022/03/21 04:05:44;;;;;;;4.80;4.30;;;21.90;52.40;;;;;;4988450;28;20161;-89
2022/03/21 04:08:09;;;;;;;5.27;4.77;;;21.90;52.50;;;;;;4988693;28;20441;-88
2022/03/21 04:10:35;;;;;;;5.43;4.83;;;21.90;52.50;;;;;;4970910;28;20456;-88
2022/03/21 04:13:01;;;;;;;6.63;5.20;;;21.90;52.50;;;;;;4971164;28;20184;-88
2022/03/21 04:15:27;;;;;;;4.73;4.30;;;21.90;52.50;;;;;;4989240;28;20174;-88
2022/03/21 04:17:58;;;;;;;4.90;4.40;;;21.90;52.50;;;;;;4971934;28;20475;-88
2022/03/21 04:20:24;;;;;;;5.60;4.17;;;21.90;52.50;;;;;;4972014;28;20473;-89
2022/03/21 04:22:50;;;;;;;4.97;4.27;;;21.90;52.50;;;;;;4988832;28;20421;-88
2022/03/21 04:25:16;;;;;;;5.07;4.57;;;21.90;52.50;;;;;;4970862;28;20188;-89
2022/03/21 04:31:04;;;;;;;4.10;3.70;;;21.90;52.50;;;;;;4985048;28;20233;-89
2022/03/21 04:36:53;;;;;;;5.07;4.20;;;21.90;52.60;;;;;;4988402;28;20445;-89
2022/03/21 04:39:18;;;;;;;4.90;4.40;;;21.90;52.60;;;;;;4970769;28;20413;-89
2022/03/21 04:41:44;;;;;;;4.83;4.37;;;21.90;52.70;;;;;;4988980;28;20421;-89
2022/03/21 04:44:11;;;;;;;5.00;4.50;;;21.90;52.60;;;;;;4987172;28;20204;-88
2022/03/21 04:46:37;;;;;;;5.33;4.50;;;21.90;52.60;;;;;;4969148;28;20217;-89
2022/03/21 04:49:03;;;;;;;5.20;4.17;;;21.90;52.60;;;;;;4968021;29;20426;-89
2022/03/21 04:51:28;;;;;;;5.10;4.60;;;21.90;52.60;;;;;;4987862;28;20205;-89
2022/03/21 04:53:54;;;;;;;4.90;4.50;;;21.90;52.60;;;;;;4988087;28;20904;-89
2022/03/21 04:56:20;;;;;;;6.20;4.87;;;21.90;52.60;;;;;;4987682;28;20169;-89
2022/03/21 04:58:46;;;;;;;4.57;4.07;;;21.90;53.20;;;;;;4970769;28;20636;-89
2022/03/21 05:01:11;;;;;;;5.37;4.13;;;21.90;52.60;;;;;;4986600;28;20177;-89
2022/03/21 05:03:37;;;;;;;5.10;4.30;;;21.90;52.60;;;;;;4971202;28;20192;-89
2022/03/21 05:06:03;;;;;;;4.33;3.93;;;21.90;52.60;;;;;;4988100;28;20173;-90
2022/03/21 05:08:29;;;;;;;5.73;4.60;;;21.90;52.60;;;;;;4971056;28;20448;-90
2022/03/21 05:10:56;;;;;;;4.57;4.17;;;21.90;52.60;;;;;;4970864;28;20214;-89
2022/03/21 05:13:22;;;;;;;5.30;4.60;;;21.90;52.60;;;;;;4988496;28;20484;-89
2022/03/21 05:15:48;;;;;;;4.33;3.50;;;21.90;52.60;;;;;;4988341;28;20417;-89
2022/03/21 05:18:13;;;;;;;5.40;4.00;;;21.90;53.10;;;;;;4971408;28;20174;-89
2022/03/21 05:20:40;;;;;;;4.50;4.10;;;21.90;52.60;;;;;;4988622;28;20182;-89
2022/03/21 05:31:18;;;;;;;6.77;5.33;;;21.80;52.50;;;;;;4986932;28;20527;-90
2022/03/21 05:36:29;;;;;;;5.70;4.63;;;21.80;52.60;;;;;;4987613;28;20205;-90
2022/03/21 05:38:56;;;;;;;5.67;4.30;;;21.80;52.60;;;;;;4987574;28;20409;-89
2022/03/21 05:41:22;;;;;;;5.23;3.87;;;21.80;52.60;;;;;;4969373;28;20627;-91
2022/03/21 05:43:49;;;;;;;4.67;3.87;;;21.80;52.60;;;;;;4986879;28;20417;-88
2022/03/21 05:46:15;;;;;;;5.67;3.97;;;21.80;52.60;;;;;;4990258;28;20499;-88
2022/03/21 05:48:59;;;;;;;3.83;3.43;;;21.80;52.60;;;;;;4989765;28;20420;-88
2022/03/21 05:51:30;;;;;;;4.37;3.97;;;21.80;52.60;;;;;;4973669;28;20453;-88
2022/03/21 05:53:59;;;;;;;5.70;4.47;;;21.80;52.60;;;;;;4974354;28;20488;-89
2022/03/21 05:56:27;;;;;;;4.90;4.40;;;21.80;52.60;;;;;;4955801;29;20433;-88
2022/03/21 05:58:56;;;;;;;5.20;4.40;;;21.80;52.60;;;;;;4976613;28;20428;-88
2022/03/21 06:01:23;;;;;;;4.27;3.53;;;21.80;52.60;;;;;;4990322;28;20420;-90
2022/03/21 06:03:53;;;;;;;5.10;4.60;;;21.80;52.60;;;;;;4973484;28;20508;-88
2022/03/21 06:06:20;;;;;;;4.23;3.83;;;21.80;52.60;;;;;;4983654;28;20788;-91
2022/03/21 06:08:46;;;;;;;5.27;4.77;;;21.80;52.60;;;;;;4992068;28;20421;-92
2022/03/21 06:11:12;;;;;;;7.90;4.40;;;21.80;52.60;;;;;;4973539;28;20457;-89
2022/03/21 06:13:42;;;;;;;4.97;4.30;;;21.80;52.60;;;;;;4974649;28;20433;-90
2022/03/21 06:16:08;;;;;;;4.83;4.33;;;21.80;52.50;;;;;;4973606;28;20417;-87
2022/03/21 06:18:39;;;;;;;7.10;4.80;;;21.80;52.50;;;;;;4990568;28;20436;-90
2022/03/21 06:21:07;;;;;;;5.07;4.27;;;21.80;52.50;;;;;;4973589;28;20405;-90
2022/03/21 06:23:33;;;;;;;4.70;4.20;;;21.80;52.50;;;;;;4990095;28;20417;-87
2022/03/21 06:25:59;;;;;;;6.90;4.50;;;21.80;52.50;;;;;;4972799;28;20971;-90
2022/03/21 06:28:26;;;;;;;5.40;4.10;;;21.90;52.60;;;;;;4972945;28;20421;-90
2022/03/21 06:30:53;;;;;;;5.40;4.40;;;21.90;52.60;;;;;;4972643;28;20549;-89
2022/03/21 06:33:22;;;;;;;4.97;3.93;;;21.90;52.50;;;;;;4988598;28;20428;-89
2022/03/21 06:35:48;;;;;;;4.80;4.37;;;21.90;52.50;;;;;;4988888;28;20429;-89
2022/03/21 06:38:15;;;;;;;4.17;3.77;;;21.90;52.50;;;;;;4989868;28;20413;-89
2022/03/21 06:40:42;;;;;;;5.00;4.37;;;21.90;52.50;;;;;;4989473;28;20433;-90
2022/03/21 06:43:11;;;;;;;3.90;3.60;;;22.00;52.60;;;;;;4972707;28;20432;-90
2022/03/21 06:45:37;;;;;;;5.10;4.70;;;21.90;52.50;;;;;;4971973;28;20468;-89
2022/03/21 06:48:03;;;;;;;5.63;4.17;;;22.00;52.50;;;;;;4972354;28;20437;-90
2022/03/21 06:50:29;;;;;;;5.13;4.37;;;22.00;52.50;;;;;;4972280;28;20209;-89
2022/03/21 06:52:55;;;;;;;4.93;4.30;;;22.00;52.50;;;;;;4988549;28;20421;-90
2022/03/21 06:55:21;;;;;;;5.03;4.10;;;22.00;52.50;;;;;;4973362;28;20239;-89
2022/03/21 06:57:47;;;;;;;5.03;4.53;;;22.00;52.50;;;;;;4989265;28;20891;-89
2022/03/21 07:00:17;;;;;;;5.37;4.10;;;22.00;52.50;;;;;;4989719;28;20436;-90
2022/03/21 07:02:46;;;;;;;4.70;4.30;;;22.00;52.50;;;;;;4989578;28;20178;-89
2022/03/21 07:05:14;;;;;;;5.87;4.40;;;22.00;52.50;;;;;;4972261;28;20472;-89
2022/03/21 07:07:40;;;;;;;5.07;4.57;;;22.00;52.50;;;;;;4972239;28;20488;-90
2022/03/21 07:13:29;;;;;;;4.90;3.90;;;22.10;52.50;;;;;;4987884;28;20164;-90
2022/03/21 07:15:56;;;;;;;5.20;4.70;;;22.00;52.50;;;;;;4969055;28;20421;-90
2022/03/21 07:18:22;;;;;;;4.43;3.60;;;22.00;52.50;;;;;;4969853;28;20448;-89
2022/03/21 07:20:48;;;;;;;5.87;3.80;;;22.10;52.60;;;;;;4970599;28;20421;-90
2022/03/21 07:23:13;;;;;;;5.20;4.30;;;22.10;52.50;;;;;;4970880;28;20564;-90
2022/03/21 07:25:39;;;;;;;4.07;3.70;;;22.10;52.50;;;;;;4988559;28;20180;-91
2022/03/21 07:28:05;;;;;;;4.83;4.20;;;22.10;52.50;;;;;;4969687;28;20182;-90
2022/03/21 07:30:32;;;;;;;5.80;3.57;;;22.10;52.50;;;;;;4986091;28;20236;-90
2022/03/21 07:32:59;;;;;;;4.67;4.17;;;22.10;52.50;;;;;;4970436;28;20209;-89
2022/03/21 07:35:25;;;;;;;6.27;4.40;;;22.10;52.50;;;;;;4985778;28;20413;-90
2022/03/21 07:37:53;;;;;;;5.37;4.07;;;22.10;52.50;;;;;;4969162;28;20420;-90
2022/03/21 07:40:19;;;;;;;5.13;4.00;;;22.10;52.40;;;;;;4987019;28;20690;-90
2022/03/21 07:42:47;;;;;;;4.77;3.90;;;22.10;52.50;;;;;;4969963;28;20425;-90
2022/03/21 07:47:59;;;;;;;4.10;3.50;;;22.20;52.50;;;;;;4987966;28;20332;-90
2022/03/21 07:50:25;;;;;;;4.47;3.90;;;22.20;52.50;;;;;;4970629;28;20453;-90
2022/03/21 07:52:52;;;;;;;5.47;4.10;;;22.20;52.50;;;;;;4988188;28;20414;-89
2022/03/21 07:55:19;;;;;;;4.30;3.70;;;22.20;52.50;;;;;;4987675;28;20405;-91
2022/03/21 07:57:45;;;;;;;4.20;3.80;;;22.20;52.50;;;;;;4971000;28;20413;-89
2022/03/21 08:00:13;;;;;;;4.50;4.10;;;22.20;52.50;;;;;;4970692;28;20514;-90
2022/03/21 08:02:39;;;;;;;5.33;4.57;;;22.20;52.50;;;;;;4987670;28;20424;-90
2022/03/21 08:05:06;;;;;;;5.27;3.83;;;22.20;52.50;;;;;;4987555;28;20488;-90
2022/03/21 08:07:32;;;;;;;4.10;3.70;;;22.20;52.50;;;;;;4970421;28;20417;-90
2022/03/21 08:09:58;;;;;;;3.77;3.40;;;22.20;52.50;;;;;;4970266;28;20469;-90
2022/03/21 08:12:24;;;;;;;4.60;3.90;;;22.20;52.50;;;;;;4987903;28;20924;-89
2022/03/21 08:18:13;;;;;;;5.53;3.50;;;22.20;52.50;;;;;;4987019;28;20241;-90
2022/03/21 08:20:43;;;;;;;4.00;3.30;;;22.20;52.50;;;;;;4969918;28;20425;-89
2022/03/21 08:23:11;;;;;;;3.90;3.20;;;22.20;52.50;;;;;;4970418;28;20428;-90
2022/03/21 08:25:45;;;;;;;4.70;3.80;;;22.20;52.50;;;;;;4970162;28;20930;-90
2022/03/21 08:28:11;;;;;;;3.87;3.50;;;22.20;53.10;;;;;;4970480;28;20417;-90
2022/03/21 08:30:38;;;;;;;4.00;3.63;;;22.20;52.50;;;;;;4970467;28;20520;-89
2022/03/21 08:33:08;;;;;;;4.33;3.87;;;22.20;52.50;;;;;;4987634;28;20445;-90
2022/03/21 08:35:36;;;;;;;4.87;4.10;;;22.20;52.50;;;;;;4987757;28;20876;-89
2022/03/21 08:38:03;;;;;;;4.40;3.90;;;22.20;52.50;;;;;;4987830;28;20419;-90
2022/03/21 08:40:29;;;;;;;3.77;3.37;;;22.20;52.50;;;;;;4970043;28;20425;-90
2022/03/21 08:42:58;;;;;;;4.50;4.00;;;22.20;52.50;;;;;;4987345;28;20427;-90
2022/03/21 08:45:24;;;;;;;3.50;3.20;;;22.30;52.60;;;;;;4970601;28;20500;-89
2022/03/21 08:47:53;;;;;;;4.00;3.60;;;22.20;52.50;;;;;;4970863;28;20770;-90
2022/03/21 08:50:19;;;;;;;4.00;3.40;;;22.20;52.50;;;;;;4969708;28;20461;-89
2022/03/21 08:52:48;;;;;;;4.03;3.03;;;22.30;52.60;;;;;;4987841;28;20413;-89
2022/03/21 08:55:16;;;;;;;4.10;3.50;;;22.20;52.50;;;;;;4987221;28;20413;-90
2022/03/21 08:57:42;;;;;;;3.87;3.37;;;22.30;52.60;;;;;;4987751;28;20420;-89
2022/03/21 09:00:10;;;;;;;4.27;3.27;;;22.30;52.60;;;;;;4987162;28;20536;-90
2022/03/21 09:02:36;;;;;;;4.60;4.20;;;22.30;52.60;;;;;;4970559;28;20181;-89
2022/03/21 09:05:04;;;;;;;4.37;3.97;;;22.30;52.60;;;;;;4970316;28;20421;-88
2022/03/21 09:07:30;;;;;;;3.97;3.43;;;22.30;52.60;;;;;;4970364;28;21135;-89
2022/03/21 09:09:56;;;;;;;4.07;3.67;;;22.30;52.60;;;;;;4969656;28;20492;-90
2022/03/21 09:12:21;;;;;;;3.87;3.20;;;22.30;52.60;;;;;;4987518;28;20405;-89
2022/03/21 09:14:47;;;;;;;3.80;3.50;;;22.30;52.60;;;;;;4986161;28;20596;-89
2022/03/21 09:17:13;;;;;;;3.87;3.30;;;22.30;52.60;;;;;;4986679;28;20178;-89
2022/03/21 09:19:40;;;;;;;4.10;3.70;;;22.30;52.60;;;;;;4970342;28;20428;-89
2022/03/21 09:22:05;;;;;;;4.40;3.20;;;22.30;52.60;;;;;;4973635;28;20264;-88
2022/03/21 09:24:32;;;;;;;3.23;2.93;;;22.30;52.60;;;;;;4973384;28;20785;-89
2022/03/21 09:26:58;;;;;;;4.00;3.60;;;22.30;52.60;;;;;;4972939;28;20186;-88
2022/03/21 09:29:24;;;;;;;4.33;3.63;;;22.30;52.70;;;;;;4973710;28;20417;-89
2022/03/21 09:31:53;;;;;;;3.40;3.10;;;22.30;52.60;;;;;;4972608;28;20433;-89
2022/03/21 09:34:32;;;;;;;;;;;;;;;;;;;;;
2022/03/21 09:40:49;;;;;;;;;;;;;;;;;;;;;
2022/03/21 09:43:47;;;;;;;3.47;3.17;;;22.30;52.70;;;;;;4970267;28;20503;-89
2022/03/21 09:46:20;;;;;;;4.97;3.57;;;22.30;52.70;;;;;;4984181;28;20464;-89
2022/03/21 09:49:06;;;;;;;4.80;3.67;;;22.30;52.70;;;;;;4972735;28;20413;-89
2022/03/21 09:51:35;;;;;;;3.77;3.13;;;22.30;52.70;;;;;;4971486;28;20508;-89
2022/03/21 09:54:10;;;;;;;3.90;3.43;;;22.30;52.70;;;;;;4972851;28;20504;-89
2022/03/21 09:56:55;;;;;;;3.90;3.27;;;22.30;52.70;;;;;;4972603;28;20409;-89
2022/03/21 10:00:03;;;;;;;;;;;;;;;;;;;;;
2022/03/21 10:02:36;;;;;;;3.30;3.10;;;22.30;52.70;;;;;;4989059;28;20457;-90
2022/03/21 10:05:46;;;;;;;3.50;3.20;;;22.30;52.80;;;;;;4989963;28;20393;-89
2022/03/21 10:08:27;;;;;;;3.67;3.20;;;22.30;52.80;;;;;;4972237;28;20408;-89
2022/03/21 10:11:05;;;;;;;3.90;3.50;;;22.30;52.90;;;;;;4988840;28;20471;-88
2022/03/21 10:13:41;;;;;;;4.43;3.00;;;22.30;52.90;;;;;;4972427;28;20933;-89
2022/03/21 10:16:26;;;;;;;3.40;2.97;;;22.30;52.90;;;;;;4989268;28;20419;-89
2022/03/21 10:18:57;;;;;;;5.90;2.90;;;22.30;52.90;;;;;;4988756;28;20439;-90
2022/03/21 10:22:01;;;;;;;3.77;3.37;;;22.30;52.90;;;;;;4972362;28;20409;-89
2022/03/21 10:24:40;;;;;;;4.53;3.27;;;22.30;52.90;;;;;;4914870;28;20431;-90
2022/03/21 10:27:57;;;;;;;6.20;3.60;;;22.30;52.90;;;;;;4988659;28;20389;-90
2022/03/21 10:30:26;;;;;;;2.80;2.57;;;22.30;52.90;;;;;;4946457;28;20469;-90
2022/03/21 10:32:57;;;;;;;4.10;3.03;;;22.20;52.90;;;;;;4970772;28;20472;-90
2022/03/21 10:46:20;;;;;;;3.20;2.90;;;22.20;52.90;;;;;;4889984;29;20485;-90
2022/03/21 10:49:22;;;;;;;4.93;3.33;;;22.20;52.90;;;;;;4871255;29;20488;-90
2022/03/21 10:51:53;;;;;;;3.40;2.90;;;22.20;52.90;;;;;;4874963;29;20483;-90
2022/03/21 10:58:45;;;;;;;4.70;3.30;;;22.20;52.90;;;;;;4828961;29;20447;-90
2022/03/21 11:01:42;;;;;;;3.27;2.97;;;22.20;53.50;;;;;;4819214;29;20439;-90
2022/03/21 11:04:19;;;;;;;3.63;3.33;;;22.20;53.00;;;;;;4815583;29;20428;-90
2022/03/21 11:07:14;;;;;;;3.37;3.07;;;22.20;53.00;;;;;;4853226;29;20426;-90
2022/03/21 11:10:28;;;;;;;3.53;3.20;;;22.20;52.90;;;;;;4871698;29;20441;-90
2022/03/21 11:13:02;;;;;;;3.17;2.93;;;22.20;52.90;;;;;;4853099;29;20927;-90
2022/03/21 11:15:40;;;;;;;3.53;3.00;;;22.20;52.90;;;;;;4920283;29;20460;-90
2022/03/21 11:19:04;;;;;;;3.47;3.17;;;22.30;53.00;;;;;;4971723;28;20776;-90
2022/03/21 11:24:52;;;;;;;3.37;3.07;;;22.30;53.00;;;;;;4890991;29;20454;-90
2022/03/21 11:27:56;;;;;;;4.20;2.97;;;22.20;52.90;;;;;;4891825;29;20496;-89
2022/03/21 11:30:29;;;;;;;3.27;2.97;;;22.30;53.00;;;;;;4875939;29;20221;-89
2022/03/21 11:39:26;;;;;;;2.93;2.63;;;22.30;53.00;;;;;;4890718;29;20948;-90
2022/03/21 11:42:10;;;;;;;3.10;2.77;;;22.20;53.00;;;;;;4875644;29;20482;-90
2022/03/21 11:44:37;;;;;;;3.10;2.73;;;22.30;53.10;;;;;;4889430;29;20437;-90
2022/03/21 11:47:23;;;;;;;3.00;2.67;;;22.30;53.00;;;;;;4890427;29;20524;-90
2022/03/21 11:49:49;;;;;;;3.17;2.87;;;22.30;53.00;;;;;;4889744;29;20506;-90
2022/03/21 11:52:15;;;;;;;2.93;2.63;;;22.30;53.00;;;;;;4874093;29;20430;-90
2022/03/21 11:54:45;;;;;;;3.30;3.00;;;22.30;53.00;;;;;;4872210;29;20433;-90
2022/03/21 11:57:16;;;;;;;3.17;2.87;;;22.30;53.00;;;;;;4913858;29;20420;-88
2022/03/21 11:59:42;;;;;;;2.80;2.60;;;22.30;53.00;;;;;;4967940;28;20509;-89
2022/03/21 12:02:08;;;;;;;3.40;3.10;;;22.30;53.00;;;;;;4966009;28;20872;-90
2022/03/21 12:04:34;;;;;;;3.73;3.00;;;22.30;53.00;;;;;;4977899;28;20177;-89
2022/03/21 12:07:13;;;;;;;3.53;2.77;;;22.30;53.00;;;;;;4987387;28;20173;-90
2022/03/21 12:09:40;;;;;;;3.17;2.83;;;22.30;53.00;;;;;;4983300;28;20425;-90
2022/03/21 12:12:06;;;;;;;3.50;3.20;;;22.30;53.00;;;;;;4986161;28;20452;-88
2022/03/21 12:14:41;;;;;;;3.30;3.07;;;22.30;53.00;;;;;;4986598;28;20439;-90
2022/03/21 12:17:13;;;;;;;3.07;2.83;;;22.30;53.00;;;;;;4969709;28;20519;-89
2022/03/21 12:19:51;;;;;;;2.80;2.60;;;22.30;53.00;;;;;;4965196;28;20467;-90
2022/03/21 12:22:30;;;;;;;2.53;2.33;;;22.30;53.00;;;;;;4985583;28;20424;-89
2022/03/21 12:24:57;;;;;;;3.30;2.60;;;22.30;53.00;;;;;;4984715;28;20413;-89
2022/03/21 12:27:39;;;;;;;2.83;2.57;;;22.30;53.00;;;;;;4969193;28;20927;-89
2022/03/21 12:30:23;;;;;;;3.27;2.97;;;22.30;53.00;;;;;;4989988;28;20452;-88
2022/03/21 12:32:53;;;;;;;2.97;2.67;;;22.30;53.00;;;;;;4964092;28;20492;-88
2022/03/21 12:35:31;;;;;;;3.43;3.07;;;22.30;53.00;;;;;;4987042;28;20480;-88
2022/03/21 12:38:14;;;;;;;2.83;2.63;;;22.30;53.00;;;;;;4986398;28;20444;-89
2022/03/21 12:40:52;;;;;;;3.30;2.60;;;22.30;53.00;;;;;;4990068;28;20424;-89
2022/03/21 12:43:31;;;;;;;3.70;2.60;;;22.30;53.00;;;;;;4970080;28;20784;-89
2022/03/21 12:46:12;;;;;;;2.83;2.63;;;22.30;53.00;;;;;;4951416;29;20522;-87
2022/03/21 12:48:45;;;;;;;3.00;2.70;;;22.30;53.00;;;;;;4967039;29;20457;-89
2022/03/21 12:51:14;;;;;;;3.43;3.00;;;22.30;53.00;;;;;;4966411;29;20461;-89
2022/03/21 12:53:47;;;;;;;2.90;2.60;;;22.30;52.90;;;;;;4951089;29;20418;-90
2022/03/21 12:56:19;;;;;;;2.80;2.60;;;22.30;53.00;;;;;;4950493;29;20425;-87
2022/03/21 12:58:46;;;;;;;3.90;2.90;;;22.30;52.90;;;;;;4951121;29;20410;-88
2022/03/21 13:01:13;;;;;;;3.57;3.20;;;22.30;53.50;;;;;;4950858;29;20422;-88
2022/03/21 13:03:42;;;;;;;3.27;2.60;;;22.30;52.90;;;;;;4966822;28;20445;-88
2022/03/21 13:12:30;;;;;;;3.60;2.77;;;22.30;52.90;;;;;;4968033;29;20495;-89
2022/03/21 13:15:10;;;;;;;3.17;2.80;;;22.30;52.90;;;;;;4967628;29;20429;-89
2022/03/21 13:18:05;;;;;;;3.97;3.30;;;22.30;52.90;;;;;;4951116;29;20445;-88
2022/03/21 13:23:53;;;;;;;3.27;2.70;;;22.30;53.00;;;;;;4967987;29;20409;-90
2022/03/21 13:26:24;;;;;;;3.30;2.67;;;22.30;53.00;;;;;;4950258;29;20422;-88
2022/03/21 13:28:53;;;;;;;3.33;2.77;;;22.30;53.00;;;;;;4967422;28;20476;-89
2022/03/21 13:31:29;;;;;;;3.77;3.00;;;22.30;53.00;;;;;;4967507;29;20998;-87
2022/03/21 13:34:07;;;;;;;3.23;2.90;;;22.30;53.00;;;;;;4968895;29;20391;-89
2022/03/21 13:36:45;;;;;;;3.07;2.70;;;22.30;53.00;;;;;;4968266;29;20404;-89
2022/03/21 13:39:23;;;;;;;3.30;3.00;;;22.30;53.00;;;;;;4950868;29;20972;-89
2022/03/21 13:42:05;;;;;;;4.17;3.23;;;22.30;53.00;;;;;;4966768;29;20424;-87
2022/03/21 13:44:57;;;;;;;2.77;2.50;;;22.30;53.00;;;;;;4968186;29;20477;-88
2022/03/21 13:47:25;;;;;;;5.17;3.33;;;22.40;53.00;;;;;;4951160;29;20442;-89
2022/03/21 13:50:03;;;;;;;3.50;3.20;;;22.30;53.00;;;;;;4951053;29;20437;-89
2022/03/21 13:52:58;;;;;;;3.10;2.80;;;22.30;53.00;;;;;;4967915;29;20402;-89
2022/03/21 13:55:27;;;;;;;3.00;2.33;;;22.30;53.00;;;;;;4950713;29;20940;-87
2022/03/21 13:57:55;;;;;;;3.67;2.90;;;22.30;53.00;;;;;;4966416;28;20480;-87
2022/03/21 14:00:27;;;;;;;2.80;2.60;;;22.30;53.00;;;;;;4968332;29;20427;-87
2022/03/21 14:02:54;;;;;;;3.30;3.00;;;22.40;53.00;;;;;;4968056;29;20414;-87
2022/03/21 14:05:24;;;;;;;2.73;2.40;;;22.40;53.10;;;;;;4951132;29;20432;-87
2022/03/21 14:14:17;;;;;;;3.70;2.83;;;22.40;53.00;;;;;;4930430;29;20459;-90
2022/03/21 14:16:44;;;;;;;3.10;2.87;;;22.30;53.00;;;;;;4914443;29;20443;-89
2022/03/21 14:19:19;;;;;;;3.10;2.70;;;22.30;53.00;;;;;;4914430;29;20796;-89
2022/03/21 14:21:45;;;;;;;3.37;2.73;;;22.30;52.90;;;;;;4914205;29;20430;-88
2022/03/21 14:24:12;;;;;;;3.00;2.63;;;22.40;53.00;;;;;;4913230;29;20977;-88